createdAt,value
2022-12-06T00:01:32.200Z,1.33
2022-12-06T00:04:03.907Z,1.38
2022-12-06T00:06:34.953Z,1.48
2022-12-06T00:09:02.865Z,0.77
2022-12-06T00:11:36.245Z,1.25
2022-12-06T00:14:07.412Z,1.42
2022-12-06T00:16:37.278Z,1.02
2022-12-06T00:19:06.643Z,1.02
2022-12-06T00:21:37.525Z,1.95
2022-12-06T00:24:08.954Z,1.35
2022-12-06T00:26:40.886Z,0.98
2022-12-06T00:29:13.148Z,1.65
2022-12-06T00:31:41.413Z,1.63
2022-12-06T00:34:09.703Z,1.45
2022-12-06T00:36:40.843Z,0.60
2022-12-06T00:39:12.586Z,1.13
2022-12-06T00:41:42.248Z,1.33
2022-12-06T00:44:10.832Z,1.25
2022-12-06T00:46:40.772Z,1.58
2022-12-06T00:49:10.322Z,1.42
2022-12-06T00:51:39.726Z,1.55
2022-12-06T00:54:09.440Z,1.05
2022-12-06T00:56:38.120Z,1.50
2022-12-06T00:59:08.195Z,1.10
2022-12-06T01:01:36.906Z,2.00
2022-12-06T01:04:09.242Z,1.35
2022-12-06T01:06:38.922Z,1.15
2022-12-06T01:09:11.542Z,1.27
2022-12-06T01:11:40.739Z,1.52
2022-12-06T01:14:09.796Z,1.17
2022-12-06T01:16:37.668Z,1.05
2022-12-06T01:19:07.494Z,0.85
2022-12-06T01:21:35.653Z,0.88
2022-12-06T01:24:03.331Z,1.42
2022-12-06T01:26:34.375Z,1.55
2022-12-06T01:29:04.374Z,0.85
2022-12-06T01:31:38.686Z,1.33
2022-12-06T01:34:08.720Z,1.58
2022-12-06T01:36:36.461Z,1.77
2022-12-06T01:39:06.787Z,0.90
2022-12-06T01:41:35.246Z,0.60
2022-12-06T01:44:03.014Z,1.58
2022-12-06T01:46:37.639Z,1.33
2022-12-06T01:49:18.639Z,2.08
2022-12-06T01:51:54.314Z,1.52
2022-12-06T01:54:24.624Z,1.23
2022-12-06T01:56:54.849Z,1.33
2022-12-06T01:59:25.280Z,1.10
2022-12-06T02:01:55.428Z,0.68
2022-12-06T02:04:24.994Z,0.85
2022-12-06T02:06:56.522Z,1.65
2022-12-06T02:09:25.538Z,1.13
2022-12-06T02:11:53.328Z,1.52
2022-12-06T02:14:28.008Z,1.80
2022-12-06T02:17:24.169Z,1.63
2022-12-06T02:20:05.818Z,1.45
2022-12-06T02:23:06.847Z,1.13
2022-12-06T02:26:05.134Z,1.55
2022-12-06T02:29:25.607Z,0.90
2022-12-06T02:32:00.379Z,1.70
2022-12-06T02:34:41.063Z,1.45
2022-12-06T02:37:14.995Z,1.15
2022-12-06T02:39:50.884Z,1.75
2022-12-06T02:42:24.144Z,1.17
2022-12-06T02:44:56.252Z,0.85
2022-12-06T02:47:32.462Z,1.10
2022-12-06T02:50:04.393Z,1.00
2022-12-06T02:52:34.891Z,1.20
2022-12-06T02:55:03.998Z,1.48
2022-12-06T02:57:42.778Z,1.65
2022-12-06T03:00:35.297Z,1.00
2022-12-06T03:03:29.262Z,0.93
2022-12-06T03:06:34.450Z,1.30
2022-12-06T03:09:19.070Z,1.88
2022-12-06T03:12:00.543Z,1.08
2022-12-06T03:14:38.398Z,1.52
2022-12-06T03:17:17.644Z,1.65
2022-12-06T03:19:52.115Z,2.65
2022-12-06T03:22:26.638Z,1.25
2022-12-06T03:24:57.598Z,1.00
2022-12-06T03:27:27.949Z,2.58
2022-12-06T03:30:03.838Z,1.73
2022-12-06T03:32:35.858Z,1.15
2022-12-06T03:35:11.417Z,1.50
2022-12-06T03:37:45.636Z,1.65
2022-12-06T03:40:22.254Z,2.10
2022-12-06T03:42:51.797Z,1.35
2022-12-06T03:45:24.089Z,1.40
2022-12-06T03:48:01.282Z,1.23
2022-12-06T03:50:37.694Z,0.82
2022-12-06T03:53:06.515Z,1.40
2022-12-06T03:55:34.313Z,1.70
2022-12-06T03:58:02.333Z,2.08
2022-12-06T04:00:30.131Z,1.45
2022-12-06T04:02:57.878Z,1.77
2022-12-06T04:05:25.622Z,2.05
2022-12-06T04:07:54.836Z,2.33
2022-12-06T04:10:22.851Z,1.85
2022-12-06T04:13:02.543Z,1.42
2022-12-06T04:15:34.232Z,2.65
2022-12-06T04:18:13.687Z,2.25
2022-12-06T04:21:02.078Z,1.73
2022-12-06T04:23:34.674Z,1.33
2022-12-06T04:26:03.342Z,1.35
2022-12-06T04:28:48.771Z,0.98
2022-12-06T04:31:34.655Z,1.92
2022-12-06T04:34:19.792Z,2.80
2022-12-06T04:37:05.625Z,1.55
2022-12-06T04:39:35.640Z,1.73
2022-12-06T04:42:21.307Z,1.60
2022-12-06T04:44:49.339Z,2.13
2022-12-06T04:47:17.395Z,2.40
2022-12-06T04:49:45.138Z,2.00
2022-12-06T04:52:13.319Z,2.15
2022-12-06T04:54:43.828Z,1.77
2022-12-06T04:57:14.126Z,1.95
2022-12-06T04:59:45.372Z,2.28
2022-12-06T05:02:16.291Z,2.83
2022-12-06T05:04:44.219Z,2.40
2022-12-06T05:07:12.491Z,1.70
2022-12-06T05:09:40.764Z,2.20
2022-12-06T05:12:10.310Z,1.92
2022-12-06T05:14:38.099Z,1.83
2022-12-06T05:17:05.852Z,1.92
2022-12-06T05:19:33.571Z,2.55
2022-12-06T05:22:01.318Z,2.17
2022-12-06T05:24:29.124Z,1.35
2022-12-06T05:26:56.808Z,1.77
2022-12-06T05:29:25.930Z,1.70
2022-12-06T05:31:53.671Z,1.73
2022-12-06T05:34:21.440Z,1.45
2022-12-06T05:36:49.187Z,1.95
2022-12-06T05:39:17.747Z,1.95
2022-12-06T05:41:45.510Z,1.30
2022-12-06T05:44:13.490Z,1.77
2022-12-06T05:46:42.817Z,1.92
2022-12-06T05:49:10.543Z,1.77
2022-12-06T05:51:38.516Z,1.73
2022-12-06T05:54:06.670Z,0.95
2022-12-06T05:56:35.169Z,1.73
2022-12-06T05:59:03.280Z,1.90
2022-12-06T06:01:31.102Z,1.80
2022-12-06T06:04:01.599Z,1.38
2022-12-06T06:06:29.594Z,1.92
2022-12-06T06:08:57.419Z,2.45
2022-12-06T06:11:25.184Z,1.98
2022-12-06T06:13:54.343Z,2.85
2022-12-06T06:16:22.385Z,2.22
2022-12-06T06:18:50.212Z,1.63
2022-12-06T06:21:19.359Z,1.92
2022-12-06T06:23:47.095Z,1.63
2022-12-06T06:26:14.863Z,2.38
2022-12-06T06:28:42.646Z,1.48
2022-12-06T06:31:12.195Z,1.60
2022-12-06T06:33:39.949Z,1.17
2022-12-06T06:36:08.872Z,2.10
2022-12-06T06:38:37.985Z,1.17
2022-12-06T06:41:07.099Z,1.35
2022-12-06T06:43:35.298Z,1.85
2022-12-06T06:46:06.869Z,2.72
2022-12-06T06:48:37.458Z,2.53
2022-12-06T06:51:08.994Z,1.77
2022-12-06T06:53:39.203Z,1.25
2022-12-06T06:56:08.639Z,1.42
2022-12-06T06:58:37.360Z,1.10
2022-12-06T07:01:08.599Z,2.17
2022-12-06T07:03:36.836Z,1.63
2022-12-06T07:06:11.089Z,1.52
2022-12-06T07:08:42.410Z,2.33
2022-12-06T07:11:11.970Z,1.75
2022-12-06T07:13:43.887Z,2.33
2022-12-06T07:16:17.550Z,1.67
2022-12-06T07:18:47.406Z,1.35
2022-12-06T07:21:17.873Z,2.10
2022-12-06T07:23:46.978Z,1.40
2022-12-06T07:26:17.667Z,1.50
2022-12-06T07:28:47.839Z,2.33
2022-12-06T07:31:18.611Z,1.63
2022-12-06T07:33:48.210Z,1.13
2022-12-06T07:36:17.838Z,1.73
2022-12-06T07:38:50.997Z,1.55
2022-12-06T07:41:39.523Z,1.83
2022-12-06T07:44:24.878Z,2.65
2022-12-06T07:46:56.382Z,1.88
2022-12-06T07:49:24.828Z,1.23
2022-12-06T07:51:55.467Z,1.88
2022-12-06T07:54:25.452Z,2.10
2022-12-06T07:56:53.188Z,1.80
2022-12-06T07:59:21.282Z,2.40
2022-12-06T08:01:49.381Z,1.17
2022-12-06T08:04:17.173Z,2.05
2022-12-06T08:06:45.567Z,0.95
2022-12-06T08:09:13.766Z,1.83
2022-12-06T08:11:42.979Z,1.98
2022-12-06T08:14:11.823Z,2.28
2022-12-06T08:16:41.121Z,2.17
2022-12-06T08:19:09.419Z,1.20
2022-12-06T08:21:37.171Z,1.63
2022-12-06T08:24:05.795Z,1.15
2022-12-06T08:26:33.755Z,1.40
2022-12-06T08:29:03.758Z,1.95
2022-12-06T08:31:34.931Z,1.92
2022-12-06T08:34:02.998Z,1.38
2022-12-06T08:36:31.169Z,1.13
2022-12-06T08:39:01.230Z,1.73
2022-12-06T08:41:46.355Z,1.88
2022-12-06T08:44:17.053Z,1.25
2022-12-06T08:46:46.005Z,0.60
2022-12-06T08:49:16.576Z,1.58
2022-12-06T08:51:44.898Z,1.70
2022-12-06T08:54:15.811Z,1.27
2022-12-06T08:56:43.676Z,1.60
2022-12-06T08:59:12.377Z,2.47
2022-12-06T09:01:42.551Z,1.98
2022-12-06T09:04:12.707Z,2.58
2022-12-06T09:06:44.438Z,1.27
2022-12-06T09:09:15.143Z,1.20
2022-12-06T09:11:45.115Z,0.98
2022-12-06T09:14:21.163Z,1.15
2022-12-06T09:16:52.671Z,2.05
2022-12-06T09:19:21.677Z,1.95
2022-12-06T09:21:49.813Z,1.83
2022-12-06T09:24:19.988Z,2.72
2022-12-06T09:26:48.300Z,1.70
2022-12-06T09:29:17.762Z,2.08
2022-12-06T09:31:45.846Z,1.45
2022-12-06T09:34:15.422Z,0.93
2022-12-06T09:36:49.115Z,1.58
2022-12-06T09:39:24.576Z,1.03
2022-12-06T09:42:34.818Z,2.25
2022-12-06T09:45:22.892Z,1.70
2022-12-06T09:48:24.544Z,1.55
2022-12-06T09:51:12.371Z,2.22
2022-12-06T09:54:00.030Z,1.27
2022-12-06T09:56:37.466Z,1.65
2022-12-06T09:59:20.654Z,2.00
2022-12-06T10:02:07.447Z,2.15
2022-12-06T10:04:59.347Z,1.65
2022-12-06T10:07:39.396Z,1.40
2022-12-06T10:10:23.522Z,1.75
2022-12-06T10:13:08.096Z,1.97
2022-12-06T10:15:53.624Z,1.13
2022-12-06T10:18:37.672Z,1.83
2022-12-06T10:21:18.210Z,1.07
2022-12-06T10:24:11.883Z,1.70
2022-12-06T10:26:49.032Z,1.77
2022-12-06T10:29:29.177Z,2.38
2022-12-06T10:32:01.209Z,1.23
2022-12-06T10:34:49.122Z,1.45
2022-12-06T10:37:37.277Z,0.93
2022-12-06T10:40:17.715Z,2.45
2022-12-06T10:42:54.959Z,1.50
2022-12-06T10:45:49.965Z,1.25
2022-12-06T10:48:26.682Z,1.70
2022-12-06T10:51:02.745Z,1.80
2022-12-06T10:53:41.486Z,1.77
2022-12-06T10:56:17.727Z,1.92
2022-12-06T10:58:54.980Z,1.60
2022-12-06T11:01:29.380Z,1.73
2022-12-06T11:04:03.343Z,1.73
2022-12-06T11:06:37.990Z,1.83
2022-12-06T11:11:45.192Z,2.22
2022-12-06T11:14:26.147Z,1.95
2022-12-06T11:17:00.454Z,1.83
2022-12-06T11:19:36.307Z,1.77
2022-12-06T11:22:22.296Z,2.65
2022-12-06T11:24:57.879Z,1.85
2022-12-06T11:27:34.549Z,2.20
2022-12-06T11:30:05.218Z,2.05
2022-12-06T11:32:32.978Z,3.63
2022-12-06T11:35:02.322Z,3.50
2022-12-06T11:37:37.698Z,2.67
2022-12-06T11:40:21.431Z,2.50
2022-12-06T11:42:50.866Z,2.38
2022-12-06T11:45:26.568Z,2.65
2022-12-06T11:47:55.797Z,3.05
2022-12-06T11:50:29.032Z,2.38
2022-12-06T11:53:03.911Z,3.45
2022-12-06T11:55:41.811Z,3.45
2022-12-06T11:58:22.732Z,2.63
2022-12-06T12:01:02.723Z,3.28
2022-12-06T12:03:34.156Z,3.10
2022-12-06T12:06:26.797Z,2.63
2022-12-06T12:09:00.564Z,2.05
2022-12-06T12:11:32.309Z,3.13
2022-12-06T12:14:07.567Z,2.85
2022-12-06T12:16:43.975Z,1.50
2022-12-06T12:19:32.435Z,2.75
2022-12-06T12:22:14.250Z,2.60
2022-12-06T12:27:48.591Z,2.72
2022-12-06T12:30:35.222Z,2.67
2022-12-06T12:33:22.207Z,2.05
2022-12-06T12:35:54.955Z,1.55
2022-12-06T12:38:39.639Z,2.67
2022-12-06T12:41:25.756Z,2.65
2022-12-06T12:44:35.870Z,2.15
2022-12-06T12:46:57.511Z,2.72
2022-12-06T12:49:33.041Z,2.47
2022-12-06T12:52:03.410Z,3.25
2022-12-06T12:54:34.512Z,2.88
2022-12-06T12:57:08.727Z,2.10
2022-12-06T12:59:41.792Z,2.20
2022-12-06T13:02:24.938Z,3.50
2022-12-06T13:05:24.804Z,2.72
2022-12-06T13:07:54.705Z,2.28
2022-12-06T13:10:31.698Z,2.08
2022-12-06T13:13:03.723Z,2.05
2022-12-06T13:15:37.701Z,3.10
2022-12-06T13:18:19.198Z,2.95
2022-12-06T13:20:49.241Z,2.70
2022-12-06T13:23:20.970Z,2.75
2022-12-06T13:25:54.858Z,2.00
2022-12-06T13:28:31.310Z,3.13
2022-12-06T13:31:08.724Z,2.42
2022-12-06T13:33:46.190Z,2.30
2022-12-06T13:36:17.055Z,2.85
2022-12-06T13:38:44.810Z,2.53
2022-12-06T13:41:14.986Z,2.85
2022-12-06T13:43:51.788Z,3.38
2022-12-06T13:46:31.634Z,3.10
2022-12-06T13:49:21.608Z,2.97
2022-12-06T13:51:50.478Z,2.25
2022-12-06T13:54:42.216Z,3.47
2022-12-06T13:57:31.640Z,2.08
2022-12-06T13:59:59.932Z,2.55
2022-12-06T14:02:52.289Z,3.97
2022-12-06T14:06:09.054Z,3.05
2022-12-06T14:08:46.774Z,1.73
2022-12-06T14:11:21.006Z,2.47
2022-12-06T14:14:00.390Z,2.72
2022-12-06T14:16:35.118Z,2.47
2022-12-06T14:19:14.730Z,2.25
2022-12-06T14:21:53.098Z,2.25
2022-12-06T14:24:34.552Z,2.70
2022-12-06T14:27:15.858Z,2.92
2022-12-06T14:29:45.918Z,2.17
2022-12-06T14:32:17.891Z,3.00
2022-12-06T14:34:48.416Z,1.98
2022-12-06T14:37:24.267Z,2.22
2022-12-06T14:39:53.821Z,2.55
2022-12-06T14:42:39.753Z,2.80
2022-12-06T14:45:16.666Z,2.33
2022-12-06T14:47:46.414Z,2.45
2022-12-06T14:50:32.142Z,2.67
2022-12-06T14:53:06.664Z,2.47
2022-12-06T14:55:37.550Z,3.10
2022-12-06T14:58:17.846Z,2.40
2022-12-06T15:00:55.230Z,2.65
2022-12-06T15:03:30.693Z,2.58
2022-12-06T15:06:19.109Z,3.72
2022-12-06T15:08:55.260Z,3.22
2022-12-06T15:11:52.073Z,2.75
2022-12-06T15:14:23.562Z,3.13
2022-12-06T15:17:02.504Z,2.90
2022-12-06T15:19:33.061Z,3.22
2022-12-06T15:22:01.431Z,2.63
2022-12-06T15:24:32.050Z,2.75
2022-12-06T15:27:00.000Z,3.70
2022-12-06T15:29:27.708Z,3.45
2022-12-06T15:31:56.564Z,2.10
2022-12-06T15:34:27.931Z,2.65
2022-12-06T15:37:22.410Z,3.03
2022-12-06T15:39:45.673Z,2.95
2022-12-06T15:42:19.419Z,2.85
2022-12-06T15:44:49.733Z,2.80
2022-12-06T15:47:19.314Z,2.53
2022-12-06T15:49:47.507Z,2.88
2022-12-06T15:52:18.400Z,2.13
2022-12-06T15:54:47.719Z,2.55
2022-12-06T15:57:15.692Z,3.63
2022-12-06T15:59:43.406Z,2.83
2022-12-06T16:02:16.457Z,2.63
2022-12-06T16:04:44.847Z,1.90
2022-12-06T16:07:18.336Z,3.20
2022-12-06T16:09:48.907Z,3.15
2022-12-06T16:12:16.776Z,2.50
2022-12-06T16:14:45.036Z,1.67
2022-12-06T16:17:12.854Z,2.33
2022-12-06T16:19:57.955Z,2.50
2022-12-06T16:22:45.683Z,2.10
2022-12-06T16:25:13.872Z,2.25
2022-12-06T16:27:41.603Z,2.60
2022-12-06T16:30:10.813Z,2.20
2022-12-06T16:32:38.520Z,2.95
2022-12-06T16:35:06.548Z,2.78
2022-12-06T16:37:34.306Z,2.50
2022-12-06T16:40:02.108Z,2.47
2022-12-06T16:42:31.292Z,1.92
2022-12-06T16:44:59.189Z,2.53
2022-12-06T16:49:53.860Z,2.45
2022-12-06T16:52:21.863Z,2.33
2022-12-06T16:54:49.587Z,1.05
2022-12-06T16:57:19.343Z,2.50
2022-12-06T16:59:48.832Z,3.25
2022-12-06T17:02:27.236Z,2.35
2022-12-06T17:04:55.968Z,2.50
2022-12-06T17:07:24.122Z,2.63
2022-12-06T17:09:52.387Z,3.05
2022-12-06T17:12:20.550Z,2.78
2022-12-06T17:14:49.839Z,2.47
2022-12-06T17:17:21.295Z,2.33
2022-12-06T17:19:50.445Z,2.85
2022-12-06T17:22:19.635Z,2.80
2022-12-06T17:24:47.442Z,2.42
2022-12-06T17:27:15.519Z,3.28
2022-12-06T17:29:44.207Z,3.55
2022-12-06T17:32:14.123Z,3.25
2022-12-06T17:34:41.888Z,2.05
2022-12-06T17:37:09.702Z,2.95
2022-12-06T17:39:37.672Z,3.20
2022-12-06T17:42:26.157Z,2.80
2022-12-06T17:44:53.903Z,2.88
2022-12-06T17:47:22.966Z,2.42
2022-12-06T17:49:50.887Z,3.40
2022-12-06T17:52:19.348Z,3.33
2022-12-06T17:54:47.436Z,2.88
2022-12-06T17:57:18.214Z,2.53
2022-12-06T17:59:48.279Z,2.45
2022-12-06T18:02:25.541Z,2.63
2022-12-06T18:04:55.292Z,3.42
2022-12-06T18:07:23.244Z,2.75
2022-12-06T18:09:50.973Z,3.25
2022-12-06T18:12:19.371Z,2.13
2022-12-06T18:14:47.111Z,3.83
2022-12-06T18:17:14.907Z,2.58
2022-12-06T18:19:46.694Z,3.35
2022-12-06T18:22:15.333Z,3.85
2022-12-06T18:24:43.162Z,3.40
2022-12-06T18:27:10.915Z,2.88
2022-12-06T18:29:38.679Z,2.35
2022-12-06T18:32:06.693Z,2.95
2022-12-06T18:34:35.475Z,2.70
2022-12-06T18:37:04.579Z,3.33
2022-12-06T18:39:32.612Z,4.05
2022-12-06T18:42:00.871Z,3.00
2022-12-06T18:44:28.866Z,2.55
2022-12-06T18:46:56.598Z,2.63
2022-12-06T18:49:24.354Z,3.40
2022-12-06T18:51:52.105Z,3.10
2022-12-06T18:54:21.609Z,2.72
2022-12-06T18:56:49.320Z,2.65
2022-12-06T18:59:17.068Z,3.22
2022-12-06T19:01:44.837Z,2.20
2022-12-06T19:04:16.458Z,2.83
2022-12-06T19:06:45.326Z,3.28
2022-12-06T19:09:15.832Z,3.35
2022-12-06T19:11:47.014Z,3.30
2022-12-06T19:14:16.614Z,3.05
2022-12-06T19:16:47.911Z,3.90
2022-12-06T19:19:19.903Z,4.15
2022-12-06T19:21:49.568Z,2.42
2022-12-06T19:24:21.356Z,3.15
2022-12-06T19:26:53.559Z,3.05
2022-12-06T19:29:22.436Z,2.42
2022-12-06T19:31:50.777Z,2.63
2022-12-06T19:34:21.583Z,3.28
2022-12-06T19:36:51.758Z,2.55
2022-12-06T19:39:20.755Z,3.63
2022-12-06T19:42:07.775Z,3.05
2022-12-06T19:44:35.947Z,3.00
2022-12-06T19:47:04.181Z,4.15
2022-12-06T19:49:32.212Z,3.65
2022-12-06T19:51:59.967Z,2.47
2022-12-06T19:54:30.554Z,5.38
2022-12-06T19:57:01.702Z,4.50
2022-12-06T19:59:32.101Z,3.13
2022-12-06T20:02:00.603Z,3.60
2022-12-06T20:04:31.261Z,2.03
2022-12-06T20:07:00.093Z,2.38
2022-12-06T20:09:30.706Z,3.20
2022-12-06T20:12:03.484Z,2.22
2022-12-06T20:14:40.561Z,2.45
2022-12-06T20:17:12.292Z,4.25
2022-12-06T20:19:42.924Z,3.50
2022-12-06T20:22:11.174Z,3.65
2022-12-06T20:24:39.376Z,3.35
2022-12-06T20:27:08.535Z,3.15
2022-12-06T20:29:36.215Z,3.65
2022-12-06T20:32:04.741Z,2.72
2022-12-06T20:34:34.763Z,4.20
2022-12-06T20:37:04.743Z,3.08
2022-12-06T20:39:34.935Z,4.43
2022-12-06T20:42:03.874Z,2.95
2022-12-06T20:44:32.950Z,3.03
2022-12-06T20:47:00.948Z,4.00
2022-12-06T20:49:28.743Z,3.83
2022-12-06T20:51:57.877Z,3.35
2022-12-06T20:54:25.622Z,2.83
2022-12-06T20:56:53.440Z,2.83
2022-12-06T20:59:22.942Z,3.58
2022-12-06T21:01:52.068Z,3.60
2022-12-06T21:04:19.920Z,3.15
2022-12-06T21:06:47.686Z,2.90
2022-12-06T21:09:15.488Z,3.67
2022-12-06T21:11:43.435Z,3.72
2022-12-06T21:14:14.501Z,3.53
2022-12-06T21:16:44.991Z,1.95
2022-12-06T21:19:17.884Z,3.63
2022-12-06T21:21:48.632Z,2.47
2022-12-06T21:24:19.886Z,2.80
2022-12-06T21:26:48.499Z,2.70
2022-12-06T21:29:18.793Z,3.05
2022-12-06T21:31:46.707Z,3.15
2022-12-06T21:34:16.455Z,3.08
2022-12-06T21:36:44.705Z,2.95
2022-12-06T21:39:14.887Z,2.63
2022-12-06T21:41:42.730Z,4.10
2022-12-06T21:44:10.527Z,1.65
2022-12-06T21:46:38.440Z,3.03
2022-12-06T21:49:06.250Z,2.00
2022-12-06T21:51:35.300Z,2.53
2022-12-06T21:54:03.091Z,2.70
2022-12-06T21:56:33.402Z,3.80
2022-12-06T21:59:01.355Z,3.17
2022-12-06T22:01:33.325Z,2.80
2022-12-06T22:04:04.389Z,2.67
2022-12-06T22:06:35.606Z,2.97
2022-12-06T22:09:06.637Z,3.08
2022-12-06T22:11:36.051Z,2.05
2022-12-06T22:14:04.654Z,2.53
2022-12-06T22:16:33.015Z,2.38
2022-12-06T22:19:01.387Z,4.00
2022-12-06T22:21:32.264Z,3.10
2022-12-06T22:24:01.603Z,3.97
2022-12-06T22:26:31.899Z,2.83
2022-12-06T22:29:00.779Z,2.55
2022-12-06T22:31:31.687Z,2.20
2022-12-06T22:34:00.538Z,2.45
2022-12-06T22:36:29.580Z,2.67
2022-12-06T22:39:01.545Z,2.13
2022-12-06T22:41:30.666Z,3.63
2022-12-06T22:44:01.581Z,2.75
2022-12-06T22:46:30.625Z,2.95
2022-12-06T22:49:00.362Z,3.53
2022-12-06T22:51:31.108Z,4.05
2022-12-06T22:54:02.491Z,3.03
2022-12-06T22:56:33.075Z,2.33
2022-12-06T22:59:02.888Z,2.72
2022-12-06T23:01:32.886Z,3.03
2022-12-06T23:04:03.501Z,3.17
2022-12-06T23:06:31.898Z,3.20
2022-12-06T23:09:01.033Z,2.80
2022-12-06T23:11:31.842Z,3.28
2022-12-06T23:14:00.562Z,2.67
2022-12-06T23:16:31.028Z,2.92
2022-12-06T23:19:01.085Z,3.03
2022-12-06T23:21:31.707Z,2.60
2022-12-06T23:24:04.054Z,3.80
2022-12-06T23:26:35.073Z,3.03
2022-12-06T23:29:03.673Z,2.75
2022-12-06T23:31:36.358Z,2.45
2022-12-06T23:34:07.728Z,3.05
2022-12-06T23:36:37.015Z,2.38
2022-12-06T23:39:07.251Z,3.42
2022-12-06T23:41:36.386Z,3.40
2022-12-06T23:44:05.193Z,2.70
2022-12-06T23:46:36.891Z,2.63
2022-12-06T23:49:06.384Z,2.50
2022-12-06T23:51:37.010Z,2.55
2022-12-06T23:54:08.544Z,3.20
2022-12-06T23:56:39.568Z,2.92
2022-12-06T23:59:10.649Z,2.58
